KCHO/CHO METAR and TAF weather

Enter ICAO airport designator
Station Type Date Time Source
KCHO METAR 2018/01/22 11:53 UTC NOAA

KCHO 221153Z 19007KT 10SM SCT100 09/05 A3011 RMK AO2 SLP194 T00890050 10133 20089 50001


Station Type Date Time Source
KCHO Decoded METAR 2018/01/22 11:53 UTC NOAA

CHARLOTTESVILLE-ALBEMARLE, VA, United States (KCHO) 38-08N 078-27W 192M
Jan 22, 2018 - 06:53 AM EST / 2018.01.22 1153 UTC
Wind: from the S (190 degrees) at 8 MPH (7 KT):0
Visibility: 10 mile(s):0
Sky conditions: partly cloudy
Temperature: 48.0 F (8.9 C)
Dew Point: 41.0 F (5.0 C)
Relative Humidity: 76%
Pressure (altimeter): 30.11 in. Hg (1019 hPa)
Pressure tendency: 0.00 inches (0.1 hPa) higher than three hours ago
ob: KCHO 221153Z 19007KT 10SM SCT100 09/05 A3011 RMK AO2 SLP194 T00890050 10133 20089 50001
cycle: 12

Station Type Date Time Source
KCHO TAF 2018/01/22 12:22 UTC NOAA

TAF KCHO 221120Z 2212/2312 VRB03KT P6SM BKN080
FM221700 19008G16KT P6SM SCT070 BKN200
FM230500 19007KT 5SM -SHRA BKN015 WS020/19035KT
FM230800 18010G18KT 2SM -SHRA BKN003 OVC008 WS020/19040KT


Example: see airport list